Time;durP1;ratioP1;P1;durP2;ratioP2;P2;SDS_P1;SDS_P2;PMS_P1;PMS_P2;Temp;Humidity;BMP_temperature;BMP_pressure;BME280_temperature;BME280_humidity;BME280_pressure;Samples;Min_cycle;Max_cycle;Signal;HPM_P1;HPM_P2
2023/05/09 00:01:13;;;;;;;21.40;13.90;;;15.20;99.90;;;;;;5017167;28;20034;-88
2023/05/09 00:03:58;;;;;;;22.98;13.15;;;14.30;99.90;;;;;;5015554;28;20056;-88
2023/05/09 00:06:25;;;;;;;20.70;12.88;;;14.60;99.90;;;;;;5017085;28;20045;-88
2023/05/09 00:09:12;;;;;;;20.25;12.15;;;14.80;99.90;;;;;;5035279;28;20049;-88
2023/05/09 00:11:38;;;;;;;19.33;11.82;;;14.30;99.90;;;;;;5016358;28;20575;-88
2023/05/09 00:14:04;;;;;;;20.15;12.13;;;13.80;99.90;;;;;;5017636;28;20480;-88
2023/05/09 00:16:47;;;;;;;17.23;11.25;;;14.50;99.90;;;;;;5012709;28;20099;-87
2023/05/09 00:19:12;;;;;;;18.27;11.20;;;14.10;99.90;;;;;;5012792;28;20050;-88
2023/05/09 00:21:38;;;;;;;20.05;10.95;;;14.80;99.90;;;;;;5054068;22;20057;-88
2023/05/09 00:24:25;;;;;;;19.25;10.77;;;14.30;99.90;;;;;;4995238;28;20054;-87
2023/05/09 00:26:50;;;;;;;18.98;11.15;;;15.10;99.90;;;;;;5001182;28;20025;-88
2023/05/09 00:29:16;;;;;;;18.33;11.80;;;14.70;99.90;;;;;;5010486;28;20042;-88
2023/05/09 00:32:02;;;;;;;17.77;11.10;;;14.00;99.90;;;;;;4994014;28;20050;-88
2023/05/09 00:34:27;;;;;;;19.38;11.35;;;14.00;99.90;;;;;;5005055;28;20061;-87
2023/05/09 00:36:53;;;;;;;18.65;10.98;;;14.90;99.90;;;;;;5007013;28;20144;-88
2023/05/09 00:39:37;;;;;;;17.45;10.68;;;14.00;99.90;;;;;;4993876;28;20039;-87
2023/05/09 00:42:03;;;;;;;19.00;11.55;;;13.80;99.90;;;;;;4994342;28;20054;-88
2023/05/09 00:44:29;;;;;;;17.95;11.05;;;14.00;99.90;;;;;;4993783;28;20044;-88
2023/05/09 00:47:13;;;;;;;19.40;11.13;;;15.00;99.90;;;;;;4993159;28;20552;-88
2023/05/09 00:49:39;;;;;;;;;;;14.50;99.90;;;;;;4994159;28;20085;-88
2023/05/09 00:52:05;;;;;;;19.58;11.82;;;14.60;99.90;;;;;;4994032;28;19921;-88
2023/05/09 00:54:30;;;;;;;16.95;10.52;;;14.60;99.90;;;;;;4993152;28;20042;-88
2023/05/09 00:57:11;;;;;;;17.77;11.02;;;13.80;99.90;;;;;;4993908;28;20375;-88
2023/05/09 00:59:37;;;;;;;18.10;11.02;;;14.30;99.90;;;;;;4994221;28;20048;-87
2023/05/09 01:02:03;;;;;;;18.48;11.07;;;14.20;99.90;;;;;;4993749;28;20047;-87
2023/05/09 01:04:50;;;;;;;17.73;11.05;;;13.70;99.90;;;;;;4994425;28;20457;-88
2023/05/09 01:07:44;;;;;;;19.85;11.98;;;14.30;99.90;;;;;;4994435;28;20056;-88
2023/05/09 01:10:39;;;;;;;19.00;11.57;;;13.70;99.90;;;;;;4953509;29;20051;-88
2023/05/09 01:13:14;;;;;;;18.90;11.60;;;13.60;99.90;;;;;;4908422;29;20489;-87
2023/05/09 01:16:30;;;;;;;22.77;11.45;;;13.20;99.90;;;;;;4930775;29;20086;-88
2023/05/09 01:18:56;;;;;;;20.20;11.57;;;13.50;99.90;;;;;;4953842;29;20047;-87
2023/05/09 01:21:30;;;;;;;19.27;12.13;;;13.80;99.90;;;;;;4968167;28;20066;-88
2023/05/09 01:24:13;;;;;;;18.98;11.68;;;13.50;99.90;;;;;;4994215;28;20521;-88
2023/05/09 01:26:38;;;;;;;21.38;12.20;;;13.50;99.90;;;;;;5004160;28;20073;-87
2023/05/09 01:29:10;;;;;;;20.90;12.50;;;13.40;99.90;;;;;;5017708;28;20038;-88
2023/05/09 01:31:46;;;;;;;21.15;11.65;;;13.40;99.90;;;;;;4998787;28;20050;-88
2023/05/09 01:34:14;;;;;;;21.33;12.25;;;13.50;99.90;;;;;;4996734;28;20475;-88
2023/05/09 01:37:01;;;;;;;21.15;12.35;;;14.40;99.90;;;;;;4992663;28;20053;-88
2023/05/09 01:39:28;;;;;;;22.77;12.30;;;13.40;99.90;;;;;;4994168;28;20046;-88
2023/05/09 01:41:56;;;;;;;24.83;13.05;;;13.90;99.90;;;;;;4993366;28;20125;-88
2023/05/09 01:44:42;;;;;;;21.88;12.32;;;13.40;99.90;;;;;;4994188;28;20108;-87
2023/05/09 01:47:09;;;;;;;24.17;12.57;;;13.00;99.90;;;;;;4992964;28;20058;-88
2023/05/09 01:49:55;;;;;;;23.30;13.02;;;14.30;99.90;;;;;;4991952;28;20054;-87
2023/05/09 01:52:22;;;;;;;25.45;12.68;;;13.80;99.90;;;;;;4992186;28;20096;-88
2023/05/09 01:55:08;;;;;;;22.67;12.75;;;13.50;99.90;;;;;;4993197;28;20125;-88
2023/05/09 01:57:35;;;;;;;25.45;12.35;;;13.40;99.90;;;;;;5011662;28;20078;-88
2023/05/09 02:00:02;;;;;;;27.85;13.13;;;13.40;99.90;;;;;;4993883;28;20528;-88
2023/05/09 02:02:49;;;;;;;23.77;14.25;;;13.30;99.90;;;;;;4996875;28;20042;-88
2023/05/09 02:05:16;;;;;;;24.40;14.10;;;13.40;99.90;;;;;;5006383;28;20046;-87
2023/05/09 02:07:42;;;;;;;26.50;14.32;;;13.40;99.90;;;;;;4994252;28;20094;-88
2023/05/09 02:10:27;;;;;;;23.75;13.57;;;14.40;99.90;;;;;;4991484;28;20042;-88
2023/05/09 02:12:53;;;;;;;23.83;13.70;;;14.40;99.90;;;;;;4993951;28;20050;-87
2023/05/09 02:15:38;;;;;;;25.33;13.38;;;13.30;99.90;;;;;;4992331;28;20497;-87
2023/05/09 02:18:04;;;;;;;24.45;13.93;;;13.20;99.90;;;;;;4993486;28;20452;-87
2023/05/09 02:20:30;;;;;;;24.02;14.00;;;13.40;99.90;;;;;;4992785;28;20125;-87
2023/05/09 02:23:21;;;;;;;24.60;13.95;;;14.20;99.90;;;;;;4995359;28;20053;-87
2023/05/09 02:25:46;;;;;;;26.10;14.85;;;13.20;99.90;;;;;;4994624;28;20054;-88
2023/05/09 02:28:31;;;;;;;26.40;15.38;;;13.20;99.90;;;;;;5013193;28;20055;-88
2023/05/09 02:30:59;;;;;;;27.20;15.95;;;14.30;99.90;;;;;;4994643;28;20048;-87
2023/05/09 02:33:26;;;;;;;29.75;16.13;;;13.90;99.90;;;;;;4995048;28;20042;-88
2023/05/09 02:36:08;;;;;;;27.33;16.38;;;14.00;99.90;;;;;;5009295;28;20046;-88
2023/05/09 02:38:34;;;;;;;28.05;16.38;;;13.20;99.90;;;;;;4995630;28;20046;-87
2023/05/09 02:41:00;;;;;;;30.35;16.58;;;13.30;99.90;;;;;;5019070;28;20046;-87
2023/05/09 02:43:38;;;;;;;32.65;19.13;;;14.50;99.90;;;;;;5010978;28;20084;-87
2023/05/09 02:46:04;;;;;;;35.55;20.35;;;14.40;99.90;;;;;;5016736;28;20034;-87
2023/05/09 02:48:29;;;;;;;33.55;19.40;;;14.20;99.90;;;;;;5016884;28;20389;-87
2023/05/09 02:51:13;;;;;;;36.28;20.45;;;14.00;99.90;;;;;;5017109;28;20045;-87
2023/05/09 02:53:39;;;;;;;36.22;22.10;;;13.50;99.90;;;;;;5016187;28;20050;-87
2023/05/09 02:56:05;;;;;;;36.28;22.23;;;13.30;99.90;;;;;;5016558;28;20112;-87
2023/05/09 02:58:30;;;;;;;36.72;22.75;;;13.40;99.90;;;;;;4998818;28;20081;-88
2023/05/09 03:01:14;;;;;;;38.42;23.95;;;14.60;99.90;;;;;;4998439;28;20038;-87
2023/05/09 03:03:40;;;;;;;;;;;14.40;99.90;;;;;;5017158;28;20053;-87
2023/05/09 03:06:06;;;;;;;39.00;24.48;;;14.20;99.90;;;;;;5014212;28;19921;-87
2023/05/09 03:08:50;;;;;;;39.38;23.15;;;13.30;99.90;;;;;;5016319;28;20104;-88
2023/05/09 03:11:15;;;;;;;37.45;23.30;;;13.40;99.90;;;;;;4998430;28;20137;-88
2023/05/09 03:13:41;;;;;;;39.90;23.23;;;14.30;99.90;;;;;;4998155;28;20124;-88
2023/05/09 03:16:19;;;;;;;37.42;22.88;;;14.30;99.90;;;;;;5015488;28;20436;-87
2023/05/09 03:18:45;;;;;;;39.63;23.00;;;14.50;99.90;;;;;;4998879;28;20096;-88
2023/05/09 03:21:11;;;;;;;44.35;24.75;;;14.40;99.90;;;;;;5015278;28;20053;-88
2023/05/09 03:24:14;;;;;;;39.75;22.33;;;14.50;99.90;;;;;;4998833;28;20048;-88
2023/05/09 03:26:40;;;;;;;37.45;21.58;;;12.70;99.90;;;;;;5033064;28;20129;-88
2023/05/09 03:29:24;;;;;;;38.97;22.45;;;13.30;99.90;;;;;;5016092;28;20049;-88
2023/05/09 03:32:08;;;;;;;39.15;21.50;;;14.60;99.90;;;;;;5006249;28;20033;-88
2023/05/09 03:34:34;;;;;;;38.45;21.85;;;13.70;99.90;;;;;;5008875;28;20050;-88
2023/05/09 03:37:00;;;;;;;36.58;21.25;;;14.30;99.90;;;;;;4998689;28;20049;-87
2023/05/09 03:39:44;;;;;;;34.60;20.90;;;13.20;99.90;;;;;;5015600;28;20176;-88
2023/05/09 03:42:10;;;;;;;42.75;21.67;;;13.30;99.90;;;;;;4997377;28;20042;-87
2023/05/09 03:44:35;;;;;;;36.17;21.55;;;14.10;99.90;;;;;;4998302;28;20467;-87
2023/05/09 03:47:01;;;;;;;41.13;21.90;;;13.30;99.90;;;;;;4998476;28;20045;-87
2023/05/09 03:49:42;;;;;;;40.95;22.10;;;13.30;99.90;;;;;;4997257;28;20041;-87
2023/05/09 03:52:08;;;;;;;38.22;21.50;;;14.10;99.90;;;;;;4997550;28;20107;-87
2023/05/09 03:54:33;;;;;;;41.53;22.90;;;14.30;99.90;;;;;;4998046;28;20481;-87
2023/05/09 03:57:18;;;;;;;42.92;22.23;;;13.50;99.90;;;;;;5015039;28;20398;-88
2023/05/09 03:59:44;;;;;;;40.30;22.52;;;13.40;99.90;;;;;;5015588;28;20397;-88
2023/05/09 04:02:10;;;;;;;41.10;22.42;;;13.40;99.90;;;;;;4996221;28;20054;-87
2023/05/09 04:04:57;;;;;;;40.08;22.63;;;13.40;99.90;;;;;;4997339;28;20050;-88
2023/05/09 04:07:23;;;;;;;40.55;22.23;;;13.40;99.90;;;;;;5015134;28;20073;-88
2023/05/09 04:09:49;;;;;;;39.28;22.58;;;13.70;99.90;;;;;;4997312;28;20116;-88
2023/05/09 04:12:28;;;;;;;42.65;22.20;;;14.20;99.90;;;;;;5025763;28;20046;-88
2023/05/09 04:14:57;;;;;;;42.45;22.88;;;14.50;99.90;;;;;;4998477;28;20057;-88
2023/05/09 04:17:22;;;;;;;44.50;23.30;;;14.60;99.90;;;;;;5014186;28;20042;-88
2023/05/09 04:19:48;;;;;;;42.63;23.48;;;13.70;99.90;;;;;;5015283;28;20434;-87
2023/05/09 04:22:38;;;;;;;40.90;22.75;;;13.40;99.90;;;;;;4996505;28;20054;-88
2023/05/09 04:25:05;;;;;;;43.92;23.08;;;13.40;99.90;;;;;;4996497;28;20049;-88
2023/05/09 04:27:46;;;;;;;41.00;22.65;;;13.40;99.90;;;;;;4996322;28;20080;-88
2023/05/09 04:30:12;;;;;;;44.63;23.02;;;14.60;99.90;;;;;;5026456;28;20026;-88
2023/05/09 04:32:37;;;;;;;45.15;24.33;;;13.40;99.90;;;;;;5039070;28;20053;-88
2023/05/09 04:35:21;;;;;;;44.20;24.55;;;13.50;99.90;;;;;;5002571;28;20140;-88
2023/05/09 04:37:47;;;;;;;40.13;22.80;;;13.80;99.90;;;;;;4999506;28;20095;-88
2023/05/09 04:40:13;;;;;;;42.53;23.92;;;13.50;99.90;;;;;;4997034;28;20433;-88
2023/05/09 04:42:57;;;;;;;44.50;23.42;;;14.70;99.90;;;;;;4998236;28;20087;-88
2023/05/09 04:45:23;;;;;;;43.35;24.00;;;14.40;99.90;;;;;;4997201;28;20061;-88
2023/05/09 04:47:49;;;;;;;47.08;23.92;;;13.60;99.90;;;;;;4998014;28;20470;-88
2023/05/09 04:50:33;;;;;;;42.58;23.63;;;14.20;99.90;;;;;;4998077;28;20485;-87
2023/05/09 04:52:58;;;;;;;42.85;23.55;;;13.60;99.90;;;;;;4999360;28;20057;-88
2023/05/09 04:55:25;;;;;;;44.72;24.02;;;14.50;99.90;;;;;;5010744;28;20046;-87
2023/05/09 04:58:12;;;;;;;41.22;23.63;;;14.60;99.90;;;;;;5015505;28;20053;-88
2023/05/09 05:00:37;;;;;;;42.20;23.02;;;14.40;99.90;;;;;;5019354;28;20141;-87
2023/05/09 05:03:03;;;;;;;39.92;23.58;;;14.40;99.90;;;;;;5024409;28;20061;-88
2023/05/09 05:05:44;;;;;;;41.97;23.92;;;14.60;99.90;;;;;;4997373;28;20144;-88
2023/05/09 05:08:10;;;;;;;38.58;22.58;;;14.10;99.90;;;;;;4996368;28;20128;-88
2023/05/09 05:10:36;;;;;;;42.63;24.17;;;15.00;99.90;;;;;;5013946;28;20434;-88
2023/05/09 05:13:01;;;;;;;45.85;23.35;;;14.60;99.90;;;;;;5013731;28;20069;-88
2023/05/09 05:15:45;;;;;;;42.00;23.42;;;15.30;99.90;;;;;;4996314;28;20501;-88
2023/05/09 05:18:10;;;;;;;43.25;24.65;;;15.00;99.90;;;;;;5014116;28;20042;-87
2023/05/09 05:20:38;;;;;;;41.10;24.45;;;14.50;99.90;;;;;;5013477;28;20156;-88
2023/05/09 05:23:19;;;;;;;39.55;23.67;;;14.30;99.90;;;;;;5013365;28;20054;-88
2023/05/09 05:25:45;;;;;;;40.08;23.80;;;15.00;99.90;;;;;;5014352;28;20060;-88
2023/05/09 05:28:11;;;;;;;42.33;24.58;;;15.20;99.90;;;;;;4995517;28;20041;-88
2023/05/09 05:30:37;;;;;;;41.00;23.67;;;14.40;99.90;;;;;;4996172;28;20053;-88
2023/05/09 05:33:17;;;;;;;41.38;24.80;;;14.80;99.90;;;;;;5014170;28;20486;-88
2023/05/09 05:35:43;;;;;;;38.28;23.33;;;14.80;99.90;;;;;;5012920;28;20054;-88
2023/05/09 05:38:18;;;;;;;42.10;23.00;;;15.20;99.90;;;;;;4995879;28;20133;-88
2023/05/09 05:40:43;;;;;;;37.13;22.55;;;15.10;99.90;;;;;;5013367;28;20088;-88
2023/05/09 05:43:09;;;;;;;37.60;22.63;;;15.40;99.90;;;;;;5010663;28;20034;-88
2023/05/09 05:45:50;;;;;;;37.65;23.05;;;14.50;99.90;;;;;;4996504;28;20140;-88
2023/05/09 05:48:15;;;;;;;39.97;23.88;;;15.50;99.90;;;;;;4995049;28;20049;-88
2023/05/09 05:50:41;;;;;;;38.45;23.38;;;14.50;99.90;;;;;;4996168;28;20397;-88
2023/05/09 05:53:07;;;;;;;36.38;22.45;;;14.70;99.90;;;;;;4995742;28;20041;-88
2023/05/09 05:55:48;;;;;;;38.75;22.35;;;14.50;99.90;;;;;;4995135;28;20100;-90
2023/05/09 05:58:13;;;;;;;39.60;22.98;;;14.90;99.90;;;;;;4995157;28;20041;-84
2023/05/09 06:00:39;;;;;;;38.92;23.13;;;14.70;99.90;;;;;;4995666;28;20523;-85
2023/05/09 06:03:17;;;;;;;37.35;23.38;;;15.10;99.90;;;;;;4995501;28;20042;-91
2023/05/09 06:05:52;;;;;;;36.08;23.02;;;15.50;99.90;;;;;;4997425;28;20117;-92
2023/05/09 06:08:17;;;;;;;37.80;23.52;;;15.50;99.90;;;;;;5013067;28;20153;-88
2023/05/09 06:10:43;;;;;;;38.08;22.52;;;15.80;99.90;;;;;;5012231;28;20128;-85
2023/05/09 06:13:09;;;;;;;38.63;23.45;;;15.40;99.90;;;;;;5012349;28;20140;-86
2023/05/09 06:15:47;;;;;;;33.67;21.45;;;15.10;99.90;;;;;;5012679;28;20073;-85
2023/05/09 06:18:12;;;;;;;37.17;21.90;;;15.70;99.90;;;;;;4994737;28;20060;-84
2023/05/09 06:20:38;;;;;;;34.97;22.05;;;15.60;99.90;;;;;;5014673;28;20049;-85
2023/05/09 06:23:04;;;;;;;34.13;21.48;;;14.60;99.90;;;;;;5018339;28;20810;-86
2023/05/09 06:25:41;;;;;;;34.95;22.13;;;15.80;99.90;;;;;;5010000;28;20057;-86
2023/05/09 06:28:07;;;;;;;34.55;22.83;;;15.70;99.90;;;;;;4996844;28;20053;-85
2023/05/09 06:30:33;;;;;;;35.67;22.92;;;15.30;99.90;;;;;;5014690;28;20045;-84
2023/05/09 06:32:59;;;;;;;35.85;22.45;;;15.50;99.90;;;;;;4993807;28;20043;-84
2023/05/09 06:35:24;;;;;;;35.03;21.63;;;14.70;99.90;;;;;;4975523;28;20054;-84
2023/05/09 06:37:52;;;;;;;35.38;21.90;;;15.70;99.90;;;;;;4974969;28;20038;-85
2023/05/09 06:40:27;;;;;;;34.80;21.70;;;15.60;99.90;;;;;;4993011;28;20126;-85
2023/05/09 06:42:53;;;;;;;35.50;21.27;;;15.40;99.90;;;;;;4975551;28;20133;-84
2023/05/09 06:45:18;;;;;;;33.83;22.00;;;14.70;99.90;;;;;;4974440;28;20053;-84
2023/05/09 06:48:01;;;;;;;32.95;20.50;;;15.90;99.90;;;;;;4993219;28;20089;-84
2023/05/09 06:50:26;;;;;;;33.50;21.58;;;14.80;99.90;;;;;;4974870;28;20054;-84
2023/05/09 06:52:52;;;;;;;31.02;20.65;;;14.80;99.90;;;;;;4988963;28;20046;-84
2023/05/09 06:55:36;;;;;;;32.00;20.35;;;15.80;99.90;;;;;;5013109;28;20095;-84
2023/05/09 06:58:02;;;;;;;33.83;21.63;;;14.70;99.90;;;;;;5030982;28;20048;-85
2023/05/09 07:00:28;;;;;;;32.00;20.95;;;14.90;99.90;;;;;;5014268;28;20087;-87
2023/05/09 07:03:12;;;;;;;33.15;21.45;;;14.90;99.90;;;;;;5013332;28;20045;-84
2023/05/09 07:05:37;;;;;;;33.95;21.45;;;15.00;99.90;;;;;;5031430;28;20038;-83
2023/05/09 07:08:09;;;;;;;34.05;21.25;;;16.00;99.90;;;;;;5010014;28;20544;-82
2023/05/09 07:10:35;;;;;;;33.67;20.60;;;15.70;99.90;;;;;;4993273;28;20046;-83
2023/05/09 07:13:01;;;;;;;32.92;21.38;;;15.10;99.90;;;;;;4993286;28;20133;-83
2023/05/09 07:15:26;;;;;;;34.38;21.83;;;15.50;99.90;;;;;;4993684;28;20072;-82
2023/05/09 07:17:52;;;;;;;32.35;21.55;;;16.00;99.90;;;;;;4993580;28;20165;-82
2023/05/09 07:20:31;;;;;;;36.28;22.25;;;15.20;99.90;;;;;;5010217;28;20081;-82
2023/05/09 07:22:57;;;;;;;37.55;22.48;;;15.10;99.90;;;;;;4993943;28;20395;-84
2023/05/09 07:25:23;;;;;;;34.92;21.60;;;15.30;99.90;;;;;;5012364;28;20045;-83
2023/05/09 07:27:48;;;;;;;35.72;22.13;;;15.80;99.90;;;;;;5014933;28;20129;-83
2023/05/09 07:30:14;;;;;;;34.10;22.10;;;15.00;99.90;;;;;;5015048;28;20078;-83
2023/05/09 07:32:52;;;;;;;37.05;22.75;;;15.00;99.90;;;;;;4994639;28;20038;-84
2023/05/09 07:35:19;;;;;;;37.00;22.58;;;15.70;99.90;;;;;;5014180;28;20073;-83
2023/05/09 07:37:44;;;;;;;34.40;21.40;;;15.00;99.90;;;;;;5017695;28;20085;-84
2023/05/09 07:40:28;;;;;;;33.40;21.88;;;15.40;99.90;;;;;;5005770;28;20096;-85
2023/05/09 07:42:57;;;;;;;36.13;22.33;;;15.00;99.90;;;;;;4999034;28;20045;-84
2023/05/09 07:45:23;;;;;;;34.50;22.27;;;15.90;99.90;;;;;;4998847;28;20041;-85
2023/05/09 07:47:48;;;;;;;36.33;22.45;;;15.80;99.90;;;;;;5015791;28;20048;-85
2023/05/09 07:50:29;;;;;;;36.72;23.15;;;15.30;99.90;;;;;;5017460;28;20125;-84
2023/05/09 07:52:56;;;;;;;35.22;22.85;;;15.30;99.90;;;;;;5257000;23;20049;-84
2023/05/09 07:55:30;;;;;;;36.53;22.77;;;15.80;99.90;;;;;;5036910;28;20128;-84
2023/05/09 07:57:57;;;;;;;40.47;23.63;;;16.10;99.90;;;;;;5054940;28;20086;-85
2023/05/09 08:00:22;;;;;;;38.33;22.92;;;15.60;99.90;;;;;;5041232;28;20091;-85
2023/05/09 08:02:52;;;;;;;36.28;22.27;;;15.60;99.90;;;;;;5035535;28;20049;-85
2023/05/09 08:05:18;;;;;;;37.15;24.25;;;16.20;99.90;;;;;;5016304;28;20037;-84
2023/05/09 08:07:44;;;;;;;39.00;24.00;;;16.40;99.90;;;;;;5016745;28;20044;-85
2023/05/09 08:10:16;;;;;;;38.80;24.10;;;15.80;99.90;;;;;;5015366;28;20041;-85
2023/05/09 08:12:41;;;;;;;42.80;24.35;;;15.90;99.90;;;;;;5016166;28;20095;-85
2023/05/09 08:15:07;;;;;;;42.47;24.65;;;16.80;99.90;;;;;;5021170;28;20045;-86
2023/05/09 08:17:33;;;;;;;40.17;23.58;;;16.10;99.90;;;;;;5033259;28;20493;-85
2023/05/09 08:20:01;;;;;;;39.75;23.80;;;17.30;99.90;;;;;;5035749;28;20058;-85
2023/05/09 08:22:38;;;;;;;42.38;25.20;;;17.00;99.90;;;;;;5032419;28;20064;-84
2023/05/09 08:25:12;;;;;;;40.28;24.50;;;16.60;99.90;;;;;;5036210;28;20045;-85
2023/05/09 08:27:53;;;;;;;41.08;26.02;;;17.50;99.90;;;;;;5053492;28;20049;-85
2023/05/09 08:30:18;;;;;;;39.83;25.13;;;16.80;99.90;;;;;;5053393;28;20124;-85
2023/05/09 08:32:44;;;;;;;45.03;26.15;;;17.00;99.90;;;;;;5036535;28;20512;-83
2023/05/09 08:35:09;;;;;;;41.20;25.08;;;17.00;99.90;;;;;;5053668;28;20127;-85
2023/05/09 08:37:36;;;;;;;43.88;25.95;;;17.30;99.90;;;;;;5051781;28;20140;-87
2023/05/09 08:40:06;;;;;;;42.95;26.92;;;16.90;99.90;;;;;;5036465;28;20043;-87
2023/05/09 08:42:33;;;;;;;43.05;26.85;;;16.90;99.90;;;;;;5039246;28;20085;-86
2023/05/09 08:45:00;;;;;;;37.92;24.00;;;16.90;99.90;;;;;;5036733;28;20045;-85
2023/05/09 08:47:27;;;;;;;42.50;25.00;;;17.10;99.90;;;;;;5036038;28;20060;-84
2023/05/09 08:49:53;;;;;;;40.47;24.98;;;16.90;99.90;;;;;;5054400;28;20045;-85
2023/05/09 08:52:19;;;;;;;40.83;25.33;;;16.90;99.90;;;;;;5052703;28;20075;-85
2023/05/09 08:54:48;;;;;;;43.28;25.38;;;16.80;99.90;;;;;;5054227;28;20056;-84
2023/05/09 08:57:14;;;;;;;42.10;24.92;;;16.90;99.90;;;;;;5035856;28;20071;-85
2023/05/09 08:59:41;;;;;;;42.67;26.25;;;16.90;99.90;;;;;;5035240;28;20044;-84
2023/05/09 09:02:08;;;;;;;41.38;25.55;;;17.00;99.90;;;;;;5035714;28;20049;-85
2023/05/09 09:04:33;;;;;;;45.22;25.95;;;17.40;99.90;;;;;;5053536;28;20052;-85
2023/05/09 09:07:19;;;;;;;44.53;26.45;;;17.20;99.90;;;;;;5052436;28;20049;-84
2023/05/09 09:09:52;;;;;;;41.47;26.15;;;17.90;99.90;;;;;;5035577;28;20045;-85
2023/05/09 09:12:22;;;;;;;41.27;25.00;;;17.40;99.90;;;;;;5034902;28;20049;-85
2023/05/09 09:15:09;;;;;;;42.88;26.52;;;17.50;99.90;;;;;;5035132;28;20299;-85
2023/05/09 09:17:38;;;;;;;42.30;25.70;;;16.90;99.90;;;;;;5051846;28;20048;-87
2023/05/09 09:20:26;;;;;;;43.53;25.83;;;16.80;99.90;;;;;;5035299;28;20048;-86
2023/05/09 09:22:57;;;;;;;38.13;25.35;;;17.60;99.90;;;;;;5044293;28;20409;-83
2023/05/09 09:28:58;;;;;;;44.13;26.27;;;17.00;99.90;;;;;;5036402;28;20431;-86
2023/05/09 09:31:27;;;;;;;40.92;25.40;;;17.70;99.90;;;;;;5053520;28;20541;-86
2023/05/09 09:34:08;;;;;;;39.90;25.55;;;17.50;99.90;;;;;;5052655;28;20044;-84
2023/05/09 09:36:35;;;;;;;39.75;25.52;;;18.00;99.90;;;;;;5035356;28;20041;-84
2023/05/09 09:39:16;;;;;;;44.10;26.38;;;17.50;99.90;;;;;;5035144;28;20048;-85
2023/05/09 09:41:43;;;;;;;41.13;24.60;;;17.50;99.90;;;;;;5034114;28;20068;-84
2023/05/09 09:44:10;;;;;;;43.65;25.00;;;17.60;99.90;;;;;;5046976;28;20096;-82
2023/05/09 09:46:54;;;;;;;46.10;27.60;;;17.60;99.90;;;;;;5031048;28;20110;-83
2023/05/09 09:49:25;;;;;;;46.35;26.90;;;17.60;99.90;;;;;;5036714;28;20098;-83
2023/05/09 09:51:52;;;;;;;45.58;27.08;;;17.60;99.90;;;;;;5024927;28;20484;-84
2023/05/09 09:54:18;;;;;;;44.38;27.45;;;17.70;99.90;;;;;;5027597;28;20087;-87
2023/05/09 09:56:49;;;;;;;45.42;27.88;;;17.70;99.90;;;;;;5046118;28;20077;-87
2023/05/09 09:59:25;;;;;;;45.05;27.67;;;17.60;99.90;;;;;;5040618;28;20113;-83
2023/05/09 10:01:59;;;;;;;48.38;28.25;;;17.70;99.90;;;;;;5034249;28;20080;-83
2023/05/09 10:04:29;;;;;;;48.80;27.30;;;17.80;99.90;;;;;;5025297;28;20036;-83
2023/05/09 10:07:06;;;;;;;49.17;28.10;;;17.90;99.90;;;;;;5049799;28;20411;-83
2023/05/09 10:09:33;;;;;;;47.97;28.38;;;17.80;99.90;;;;;;5033488;28;20041;-83
2023/05/09 10:12:08;;;;;;;47.85;27.77;;;17.80;99.90;;;;;;5052065;28;20128;-84
2023/05/09 10:14:35;;;;;;;55.35;28.45;;;18.40;99.90;;;;;;5018743;28;20041;-83
2023/05/09 10:17:03;;;;;;;44.08;28.00;;;17.80;99.90;;;;;;5030994;28;20069;-83
2023/05/09 10:19:30;;;;;;;48.05;26.75;;;18.00;99.90;;;;;;5031728;28;20455;-83
2023/05/09 10:22:00;;;;;;;47.42;26.95;;;18.70;99.90;;;;;;5013889;28;20397;-83
2023/05/09 10:24:32;;;;;;;47.30;27.23;;;18.10;99.90;;;;;;5014030;28;20054;-83
2023/05/09 10:27:03;;;;;;;50.30;27.35;;;18.40;99.90;;;;;;5014215;28;20509;-87
2023/05/09 10:29:31;;;;;;;51.45;27.60;;;18.20;99.90;;;;;;5030041;28;20096;-88
2023/05/09 10:32:33;;;;;;;46.35;27.65;;;18.40;99.90;;;;;;5013624;28;20045;-89
2023/05/09 10:35:05;;;;;;;48.58;28.50;;;18.60;99.90;;;;;;5033118;28;20045;-90
2023/05/09 10:37:32;;;;;;;45.60;27.10;;;18.90;99.90;;;;;;5014649;28;20081;-89
2023/05/09 10:40:14;;;;;;;51.45;29.90;;;18.90;99.90;;;;;;5051622;28;20280;-88
2023/05/09 10:42:44;;;;;;;50.75;28.48;;;18.80;99.90;;;;;;5053659;28;20041;-89
2023/05/09 10:45:32;;;;;;;49.83;28.60;;;19.30;99.90;;;;;;5021073;28;20053;-90
2023/05/09 10:48:00;;;;;;;50.67;28.88;;;18.70;99.90;;;;;;5090462;22;20480;-87
2023/05/09 10:50:52;;;;;;;54.67;29.63;;;18.90;99.90;;;;;;5016767;28;20077;-84
2023/05/09 10:53:18;;;;;;;53.13;29.30;;;19.00;99.90;;;;;;5032768;28;20124;-84
2023/05/09 10:56:00;;;;;;;55.97;30.70;;;19.20;99.90;;;;;;5032019;28;20049;-82
2023/05/09 10:58:39;;;;;;;56.85;30.70;;;19.40;99.90;;;;;;5034654;28;20056;-82
2023/05/09 11:01:43;;;;;;;58.08;30.65;;;19.60;99.90;;;;;;5025203;28;20045;-84
2023/05/09 11:04:16;;;;;;;62.67;33.20;;;19.60;99.90;;;;;;4989656;28;20580;-84
2023/05/09 11:06:52;;;;;;;59.72;33.30;;;19.70;99.90;;;;;;4993924;28;20042;-85
2023/05/09 11:09:42;;;;;;;56.40;31.58;;;19.60;99.90;;;;;;5000152;28;20046;-84
2023/05/09 11:12:12;;;;;;;63.88;33.80;;;19.30;99.90;;;;;;5016121;28;20514;-84
2023/05/09 11:14:43;;;;;;;66.47;33.38;;;20.00;99.90;;;;;;5032162;28;20111;-84
2023/05/09 11:17:14;;;;;;;63.25;35.00;;;20.20;99.90;;;;;;5017081;28;20051;-84
2023/05/09 11:19:46;;;;;;;67.68;34.05;;;20.30;99.90;;;;;;5016567;28;20034;-84
2023/05/09 11:22:18;;;;;;;54.83;32.00;;;20.40;99.90;;;;;;5032372;28;20480;-84
2023/05/09 11:25:00;;;;;;;59.83;31.80;;;20.50;99.90;;;;;;5017596;28;20052;-84
2023/05/09 11:27:30;;;;;;;58.92;33.33;;;20.70;99.90;;;;;;5033464;28;20073;-84
2023/05/09 11:29:58;;;;;;;58.45;33.53;;;20.70;99.90;;;;;;5113798;22;20200;-84
2023/05/09 11:32:30;;;;;;;55.40;32.85;;;20.70;99.90;;;;;;5026820;28;20045;-84
2023/05/09 11:35:08;;;;;;;57.92;32.42;;;20.60;99.90;;;;;;5042934;28;20125;-84
2023/05/09 11:37:43;;;;;;;63.30;33.85;;;20.50;99.90;;;;;;5022797;28;20091;-83
2023/05/09 11:40:11;;;;;;;61.20;33.55;;;20.40;99.90;;;;;;5025622;28;20041;-84
2023/05/09 11:42:43;;;;;;;61.88;34.92;;;20.30;99.90;;;;;;5045214;28;20159;-83
2023/05/09 11:45:10;;;;;;;57.17;34.80;;;20.10;99.90;;;;;;5027477;28;20048;-84
2023/05/09 11:47:37;;;;;;;60.38;34.88;;;19.90;99.90;;;;;;5039639;28;20045;-83
2023/05/09 11:50:08;;;;;;;61.22;35.60;;;19.70;99.90;;;;;;5022388;28;20045;-83
2023/05/09 11:52:36;;;;;;;62.97;35.80;;;19.60;99.90;;;;;;5051797;28;20044;-84
2023/05/09 11:55:05;;;;;;;66.80;34.85;;;19.50;99.90;;;;;;5053092;28;20048;-83
2023/05/09 11:57:38;;;;;;;60.92;35.20;;;19.20;99.90;;;;;;5052724;28;20045;-83
2023/05/09 12:00:05;;;;;;;59.85;34.60;;;19.10;99.90;;;;;;5054056;28;20128;-82
2023/05/09 12:02:31;;;;;;;61.50;35.08;;;18.90;99.90;;;;;;5036226;28;20048;-83
2023/05/09 12:05:09;;;;;;;59.63;34.85;;;18.80;99.90;;;;;;5036211;28;20494;-83
2023/05/09 12:07:36;;;;;;;63.90;33.70;;;18.60;99.90;;;;;;5036049;28;20040;-82
2023/05/09 12:10:07;;;;;;;70.60;37.15;;;19.00;99.90;;;;;;5036730;28;20044;-82
2023/05/09 12:12:35;;;;;;;70.35;36.78;;;18.40;99.90;;;;;;5035963;28;20111;-82
2023/05/09 12:15:07;;;;;;;66.20;36.47;;;18.30;99.90;;;;;;5035981;28;20429;-82
2023/05/09 12:17:34;;;;;;;63.77;36.33;;;18.10;99.90;;;;;;5036376;28;20041;-82
2023/05/09 12:20:00;;;;;;;64.53;36.80;;;18.10;99.90;;;;;;5038190;28;20842;-81
2023/05/09 12:22:26;;;;;;;67.55;36.60;;;18.00;99.90;;;;;;5036342;28;20057;-83
2023/05/09 12:24:53;;;;;;;69.97;38.05;;;18.00;99.90;;;;;;5036114;28;20489;-83
2023/05/09 12:27:19;;;;;;;61.72;35.95;;;18.60;99.90;;;;;;5038430;28;20048;-83
2023/05/09 12:29:47;;;;;;;64.45;36.42;;;18.00;99.90;;;;;;5054438;28;20565;-82
2023/05/09 12:32:16;;;;;;;59.80;35.88;;;18.00;99.90;;;;;;5054387;28;20053;-84
2023/05/09 12:34:48;;;;;;;62.08;37.97;;;18.30;99.90;;;;;;5054649;28;20396;-83
2023/05/09 12:37:18;;;;;;;60.72;36.08;;;18.40;99.90;;;;;;5035409;28;20045;-84
2023/05/09 12:40:11;;;;;;;60.70;35.75;;;18.30;99.90;;;;;;5036107;28;20048;-84
2023/05/09 12:42:37;;;;;;;60.72;35.10;;;18.20;99.90;;;;;;5053864;28;20041;-84
2023/05/09 12:45:06;;;;;;;61.67;35.25;;;18.30;99.90;;;;;;5036403;28;20399;-83
2023/05/09 12:47:32;;;;;;;58.80;35.65;;;18.40;99.90;;;;;;5053848;28;20168;-84
2023/05/09 12:49:59;;;;;;;59.83;35.85;;;18.50;99.90;;;;;;5032015;28;20075;-83
2023/05/09 12:52:32;;;;;;;58.58;35.33;;;18.60;99.90;;;;;;5043464;28;20053;-83
2023/05/09 12:55:13;;;;;;;58.80;36.17;;;18.70;99.90;;;;;;5029502;22;20068;-84